Time;durP1;ratioP1;P1;durP2;ratioP2;P2;SDS_P1;SDS_P2;PMS_P1;PMS_P2;Temp;Humidity;BMP_temperature;BMP_pressure;BME280_temperature;BME280_humidity;BME280_pressure;Samples;Min_cycle;Max_cycle;Signal;HPM_P1;HPM_P2
2022/08/03 00:01:35;;;;;;;9.52;5.45;;;;;;;;;;4900374;29;20126;-84
2022/08/03 00:04:00;;;;;;;12.02;6.20;;;;;;;;;;4912838;29;20395;-85
2022/08/03 00:06:26;;;;;;;13.68;6.28;;;;;;;;;;4914542;29;20040;-83
2022/08/03 00:08:51;;;;;;;15.68;7.40;;;;;;;;;;4915726;29;20265;-84
2022/08/03 00:11:16;;;;;;;12.02;5.93;;;;;;;;;;4914766;29;20039;-84
2022/08/03 00:13:42;;;;;;;13.00;5.47;;;;;;;;;;4932445;29;20115;-85
2022/08/03 00:16:09;;;;;;;9.90;6.03;;;;;;;;;;4901519;29;20428;-83
2022/08/03 00:18:34;;;;;;;14.63;6.28;;;;;;;;;;4897096;29;20055;-84
2022/08/03 00:21:00;;;;;;;16.02;6.13;;;;;;;;;;4914096;29;20115;-84
2022/08/03 00:23:26;;;;;;;17.15;6.18;;;;;;;;;;4900808;29;20083;-84
2022/08/03 00:25:51;;;;;;;9.57;5.30;;;;;;;;;;4901873;29;20528;-84
2022/08/03 00:28:16;;;;;;;12.13;5.63;;;;;;;;;;4897233;29;20036;-85
2022/08/03 00:30:42;;;;;;;16.30;6.40;;;;;;;;;;4901266;29;20761;-84
2022/08/03 00:33:09;;;;;;;18.98;6.25;;;;;;;;;;4913487;29;20059;-84
2022/08/03 00:35:34;;;;;;;9.05;5.32;;;;;;;;;;4941572;29;20495;-85
2022/08/03 00:37:59;;;;;;;14.05;5.97;;;;;;;;;;4931861;29;20035;-85
2022/08/03 00:40:25;;;;;;;13.23;5.70;;;;;;;;;;4915601;29;20032;-85
2022/08/03 00:42:53;;;;;;;14.68;6.80;;;;;;;;;;4898821;29;20521;-85
2022/08/03 00:45:25;;;;;;;9.95;5.45;;;;;;;;;;4915107;29;20484;-84
2022/08/03 00:47:51;;;;;;;9.38;5.85;;;;;;;;;;4946767;28;20118;-84
2022/08/03 00:50:16;;;;;;;11.35;5.32;;;;;;;;;;4930772;29;20034;-83
2022/08/03 00:52:42;;;;;;;10.13;5.53;;;;;;;;;;4908614;29;20040;-83
2022/08/03 00:55:08;;;;;;;13.07;5.72;;;;;;;;;;4916158;29;20028;-85
2022/08/03 00:57:34;;;;;;;13.65;5.28;;;;;;;;;;4914063;29;20035;-84
2022/08/03 00:59:59;;;;;;;16.50;6.07;;;;;;;;;;4915379;29;20031;-83
2022/08/03 01:02:26;;;;;;;11.90;5.85;;;;;;;;;;4904357;29;20024;-83
2022/08/03 01:04:51;;;;;;;13.10;6.00;;;;;;;;;;4914596;29;20062;-85
2022/08/03 01:07:36;;;;;;;15.73;6.53;;;;;;;;;;4891567;29;20028;-83
2022/08/03 01:10:10;;;;;;;11.10;5.47;;;;;;;;;;4915903;29;20046;-85
2022/08/03 01:12:58;;;;;;;12.77;5.25;;;;;;;;;;4915924;29;20119;-83
2022/08/03 01:15:33;;;;;;;12.02;5.50;;;;;;;;;;4913840;29;20036;-84
2022/08/03 01:18:12;;;;;;;12.95;5.20;;;;;;;;;;4899983;29;20051;-83
2022/08/03 01:20:39;;;;;;;9.93;5.20;;;;;;;;;;4912573;29;20503;-84
2022/08/03 01:23:26;;;;;;;13.90;5.32;;;;;;;;;;4912960;29;20028;-84
2022/08/03 01:26:13;;;;;;;17.20;5.40;;;;;;;;;;4917785;29;20126;-85
2022/08/03 01:29:04;;;;;;;16.98;6.15;;;;;;;;;;4914556;29;20028;-84
2022/08/03 01:31:43;;;;;;;14.88;6.78;;;;;;;;;;4931877;29;20455;-84
2022/08/03 01:34:11;;;;;;;15.07;6.05;;;;;;;;;;4884440;29;20122;-85
2022/08/03 01:36:38;;;;;;;15.68;5.78;;;;;;;;;;4912410;29;20195;-85
2022/08/03 01:39:08;;;;;;;15.25;5.35;;;;;;;;;;4933163;29;20044;-83
2022/08/03 01:41:37;;;;;;;14.48;5.88;;;;;;;;;;4898411;29;20042;-85
2022/08/03 01:44:04;;;;;;;13.63;5.25;;;;;;;;;;4931603;29;20475;-85
2022/08/03 01:46:30;;;;;;;18.00;5.78;;;;;;;;;;4901213;29;20082;-85
2022/08/03 01:48:56;;;;;;;11.27;5.47;;;;;;;;;;4912949;29;20091;-85
2022/08/03 01:51:22;;;;;;;15.98;6.05;;;;;;;;;;4944461;28;20099;-84
2022/08/03 01:53:48;;;;;;;15.48;6.35;;;;;;;;;;4897654;29;20030;-84
2022/08/03 01:56:14;;;;;;;18.45;6.30;;;;;;;;;;4913193;29;20037;-84
2022/08/03 01:58:39;;;;;;;23.67;7.10;;;;;;;;;;4911920;29;20512;-84
2022/08/03 02:01:05;;;;;;;17.13;5.82;;;;;;;;;;4899495;29;20091;-84
2022/08/03 02:03:32;;;;;;;14.20;6.13;;;;;;;;;;4928413;29;20042;-84
2022/08/03 02:05:58;;;;;;;17.17;6.57;;;;;;;;;;4929106;29;20032;-84
2022/08/03 02:08:24;;;;;;;13.68;5.72;;;;;;;;;;4918669;29;20101;-83
2022/08/03 02:10:49;;;;;;;11.40;5.38;;;;;;;;;;4918549;29;20062;-84
2022/08/03 02:13:15;;;;;;;17.50;6.25;;;;;;;;;;4892216;29;20028;-84
2022/08/03 02:15:40;;;;;;;14.77;5.38;;;;;;;;;;4934399;29;20027;-83
2022/08/03 02:18:07;;;;;;;16.70;5.82;;;;;;;;;;4902900;29;20015;-84
2022/08/03 02:20:35;;;;;;;14.88;5.78;;;;;;;;;;4918966;29;20047;-84
2022/08/03 02:23:00;;;;;;;19.48;5.18;;;;;;;;;;4900176;29;20032;-85
2022/08/03 02:25:25;;;;;;;16.15;5.35;;;;;;;;;;4934438;29;20036;-83
2022/08/03 02:27:54;;;;;;;15.60;4.95;;;;;;;;;;4903371;29;20039;-83
2022/08/03 02:30:19;;;;;;;12.77;4.75;;;;;;;;;;4916939;29;20031;-83
2022/08/03 02:32:49;;;;;;;12.57;4.78;;;;;;;;;;4903356;29;20448;-84
2022/08/03 02:35:15;;;;;;;13.45;5.13;;;;;;;;;;4949724;28;20400;-84
2022/08/03 02:37:42;;;;;;;18.88;4.68;;;;;;;;;;4933315;29;20075;-84
2022/08/03 02:40:10;;;;;;;13.00;4.05;;;;;;;;;;4903620;29;20043;-84
2022/08/03 02:42:35;;;;;;;20.35;5.20;;;;;;;;;;4933144;29;20348;-83
2022/08/03 02:45:02;;;;;;;14.32;4.63;;;;;;;;;;4902440;29;20106;-83
2022/08/03 02:47:28;;;;;;;15.20;5.55;;;;;;;;;;4918230;29;20089;-85
2022/08/03 02:49:53;;;;;;;12.85;5.18;;;;;;;;;;4878991;29;20055;-83
2022/08/03 02:52:19;;;;;;;10.90;5.40;;;;;;;;;;4887562;29;20335;-85
2022/08/03 02:54:45;;;;;;;19.77;5.47;;;;;;;;;;4916928;29;20044;-83
2022/08/03 02:57:10;;;;;;;17.52;5.57;;;;;;;;;;4903057;29;20026;-82
2022/08/03 02:59:36;;;;;;;11.25;5.78;;;;;;;;;;4918821;29;20445;-84
2022/08/03 03:02:01;;;;;;;18.00;6.32;;;;;;;;;;4913305;29;20031;-84
2022/08/03 03:04:27;;;;;;;17.73;6.13;;;;;;;;;;4918174;29;20028;-84
2022/08/03 03:06:52;;;;;;;11.27;5.72;;;;;;;;;;4901950;29;20048;-84
2022/08/03 03:09:18;;;;;;;23.50;6.40;;;;;;;;;;4920256;29;20091;-83
2022/08/03 03:11:44;;;;;;;13.60;6.18;;;;;;;;;;4916980;29;20369;-84
2022/08/03 03:14:10;;;;;;;11.73;5.70;;;;;;;;;;4885507;29;20103;-84
2022/08/03 03:16:35;;;;;;;17.70;6.35;;;;;;;;;;4932811;29;20442;-81
2022/08/03 03:19:01;;;;;;;14.77;6.40;;;;;;;;;;4904321;29;20023;-84
2022/08/03 03:21:27;;;;;;;13.00;6.07;;;;;;;;;;4903276;29;20034;-84
2022/08/03 03:23:52;;;;;;;13.02;5.30;;;;;;;;;;4900657;29;20032;-83
2022/08/03 03:26:18;;;;;;;15.93;5.40;;;;;;;;;;4918857;29;20829;-83
2022/08/03 03:28:43;;;;;;;14.27;6.28;;;;;;;;;;4933257;29;20123;-83
2022/08/03 03:31:09;;;;;;;17.15;5.82;;;;;;;;;;4900869;29;20044;-84
2022/08/03 03:33:35;;;;;;;12.45;5.45;;;;;;;;;;4903420;29;20027;-84
2022/08/03 03:36:00;;;;;;;23.08;6.63;;;;;;;;;;4884813;29;20250;-84
2022/08/03 03:38:26;;;;;;;14.60;6.18;;;;;;;;;;4917072;29;20086;-83
2022/08/03 03:40:51;;;;;;;14.98;5.57;;;;;;;;;;4884157;29;20051;-84
2022/08/03 03:43:17;;;;;;;20.02;5.30;;;;;;;;;;4916563;29;20028;-84
2022/08/03 03:45:42;;;;;;;12.88;5.72;;;;;;;;;;4929699;29;20075;-84
2022/08/03 03:48:08;;;;;;;19.58;5.80;;;;;;;;;;4898457;29;20028;-84
2022/08/03 03:50:34;;;;;;;11.40;5.32;;;;;;;;;;4901440;29;20040;-83
2022/08/03 03:53:00;;;;;;;10.55;5.38;;;;;;;;;;4932338;29;20437;-84
2022/08/03 03:55:25;;;;;;;20.80;5.97;;;;;;;;;;4916053;29;20106;-84
2022/08/03 03:57:51;;;;;;;19.27;6.40;;;;;;;;;;4916290;29;20038;-83
2022/08/03 04:00:17;;;;;;;11.77;6.45;;;;;;;;;;4906934;29;20487;-84
2022/08/03 04:02:43;;;;;;;23.15;6.53;;;;;;;;;;4930667;29;20110;-83
2022/08/03 04:10:59;;;;;;;16.63;5.85;;;;;;;;;;4942719;29;20031;-81
2022/08/03 04:13:33;;;;;;;20.40;6.38;;;;;;;;;;4915464;29;20084;-78
2022/08/03 04:15:58;;;;;;;18.00;6.50;;;;;;;;;;4881594;29;20483;-78
2022/08/03 04:18:24;;;;;;;22.33;6.18;;;;;;;;;;4913768;29;20030;-79
2022/08/03 04:20:49;;;;;;;12.00;6.20;;;;;;;;;;4928609;29;20413;-79
2022/08/03 04:23:15;;;;;;;14.02;6.13;;;;;;;;;;4912276;29;20459;-79
2022/08/03 04:25:40;;;;;;;15.48;6.95;;;;;;;;;;4929266;29;20465;-79
2022/08/03 04:28:06;;;;;;;23.65;6.85;;;;;;;;;;4925304;29;20032;-79
2022/08/03 04:30:32;;;;;;;19.20;6.55;;;;;;;;;;4910884;29;20134;-78
2022/08/03 04:32:57;;;;;;;20.23;7.28;;;;;;;;;;4895550;29;20396;-80
2022/08/03 04:35:24;;;;;;;12.38;6.55;;;;;;;;;;4912015;29;20036;-79
2022/08/03 04:37:50;;;;;;;14.07;5.90;;;;;;;;;;4934255;29;20174;-77
2022/08/03 04:40:21;;;;;;;15.02;6.68;;;;;;;;;;4897746;29;20477;-77
2022/08/03 04:42:46;;;;;;;21.88;7.05;;;;;;;;;;4880694;29;20048;-78
2022/08/03 04:45:12;;;;;;;15.55;6.55;;;;;;;;;;4880008;29;20040;-78
2022/08/03 04:47:37;;;;;;;23.27;6.53;;;;;;;;;;4910087;29;20039;-79
2022/08/03 04:50:03;;;;;;;16.95;6.80;;;;;;;;;;4913515;29;20032;-79
2022/08/03 04:52:29;;;;;;;20.60;6.40;;;;;;;;;;4930398;29;20118;-79
2022/08/03 04:54:55;;;;;;;19.13;6.03;;;;;;;;;;4898224;29;20526;-78
2022/08/03 04:57:20;;;;;;;18.15;6.47;;;;;;;;;;4898617;29;20055;-79
2022/08/03 04:59:48;;;;;;;19.48;6.35;;;;;;;;;;4883028;29;20591;-79
2022/08/03 05:02:14;;;;;;;16.52;6.53;;;;;;;;;;4898392;29;20385;-79
2022/08/03 05:04:45;;;;;;;12.68;6.32;;;;;;;;;;4914198;29;20060;-79
2022/08/03 05:07:10;;;;;;;13.85;5.70;;;;;;;;;;4874926;29;20028;-79
2022/08/03 05:09:37;;;;;;;15.55;5.45;;;;;;;;;;4914427;29;20027;-79
2022/08/03 05:12:03;;;;;;;17.25;6.22;;;;;;;;;;4851650;29;20091;-79
2022/08/03 05:14:28;;;;;;;12.55;5.80;;;;;;;;;;4914496;29;20159;-80
2022/08/03 05:16:54;;;;;;;14.27;7.20;;;;;;;;;;4913402;29;20134;-79
2022/08/03 05:19:19;;;;;;;20.83;6.57;;;;;;;;;;4866846;29;20086;-79
2022/08/03 05:21:44;;;;;;;25.17;7.20;;;;;;;;;;4897834;29;20127;-79
2022/08/03 05:24:10;;;;;;;21.42;6.90;;;;;;;;;;4928449;29;20122;-78
2022/08/03 05:26:36;;;;;;;22.67;7.25;;;;;;;;;;4897982;29;20054;-80
2022/08/03 05:29:01;;;;;;;13.68;6.65;;;;;;;;;;4883643;29;20130;-79
2022/08/03 05:31:26;;;;;;;21.02;7.00;;;;;;;;;;4882263;29;20028;-79
2022/08/03 05:33:52;;;;;;;18.30;6.20;;;;;;;;;;4921555;29;20042;-79
2022/08/03 05:36:17;;;;;;;17.30;6.65;;;;;;;;;;4914493;29;20028;-78
2022/08/03 05:38:42;;;;;;;17.90;7.68;;;;;;;;;;4903563;29;20067;-79
2022/08/03 05:41:08;;;;;;;20.40;7.35;;;;;;;;;;4900518;29;20476;-80
2022/08/03 05:43:33;;;;;;;20.73;6.85;;;;;;;;;;4917246;29;20032;-78
2022/08/03 05:45:59;;;;;;;13.68;6.53;;;;;;;;;;4913022;29;20091;-79
2022/08/03 05:48:25;;;;;;;17.15;6.40;;;;;;;;;;4919687;29;20099;-80
2022/08/03 05:50:50;;;;;;;16.95;6.55;;;;;;;;;;4887315;29;20049;-80
2022/08/03 05:53:16;;;;;;;18.20;6.70;;;;;;;;;;4933167;29;20055;-79
2022/08/03 05:55:41;;;;;;;19.17;6.65;;;;;;;;;;4902387;29;20067;-80
2022/08/03 05:58:06;;;;;;;21.30;7.22;;;;;;;;;;4918806;29;20141;-80
2022/08/03 06:00:32;;;;;;;17.15;6.10;;;;;;;;;;4916671;29;20119;-78
2022/08/03 06:02:57;;;;;;;12.93;6.22;;;;;;;;;;4902985;29;20036;-79
2022/08/03 06:05:25;;;;;;;18.77;6.88;;;;;;;;;;4905482;29;20551;-78
2022/08/03 06:07:51;;;;;;;20.95;7.43;;;;;;;;;;4900865;29;20032;-80
2022/08/03 06:10:16;;;;;;;20.63;6.28;;;;;;;;;;4933442;29;20616;-79
2022/08/03 06:12:43;;;;;;;20.35;6.18;;;;;;;;;;4916414;29;20024;-79
2022/08/03 06:15:09;;;;;;;24.05;6.72;;;;;;;;;;4932301;29;20476;-80
2022/08/03 06:17:46;;;;;;;18.10;6.47;;;;;;;;;;4902085;29;20035;-80
2022/08/03 06:20:11;;;;;;;17.42;4.57;;;;;;;;;;4903650;29;20077;-79
2022/08/03 06:22:37;;;;;;;19.60;5.20;;;;;;;;;;4934389;29;20488;-79
2022/08/03 06:25:02;;;;;;;18.00;5.40;;;;;;;;;;4919372;29;20051;-80
2022/08/03 06:27:28;;;;;;;18.67;6.55;;;;;;;;;;4934469;29;20035;-80
2022/08/03 06:29:53;;;;;;;21.67;6.18;;;;;;;;;;4916410;29;20027;-80
2022/08/03 06:32:21;;;;;;;16.42;5.53;;;;;;;;;;4902159;29;20522;-80
2022/08/03 06:34:47;;;;;;;19.55;7.03;;;;;;;;;;4933948;29;20048;-80
2022/08/03 06:37:12;;;;;;;13.38;5.28;;;;;;;;;;4932817;29;20694;-80
2022/08/03 06:39:37;;;;;;;22.27;7.18;;;;;;;;;;4932741;29;20132;-81
2022/08/03 06:42:03;;;;;;;14.90;5.80;;;;;;;;;;4917330;29;20511;-80
2022/08/03 06:44:29;;;;;;;24.08;6.63;;;;;;;;;;4918274;29;20035;-80
2022/08/03 06:46:54;;;;;;;26.10;6.57;;;;;;;;;;4915756;29;20063;-81
2022/08/03 06:49:19;;;;;;;20.10;5.90;;;;;;;;;;4933301;29;20034;-80
2022/08/03 06:51:45;;;;;;;16.77;6.57;;;;;;;;;;4918124;29;20036;-80
2022/08/03 06:54:11;;;;;;;17.75;6.03;;;;;;;;;;4936476;29;20043;-80
2022/08/03 06:56:36;;;;;;;17.92;5.85;;;;;;;;;;4920251;29;20485;-80
2022/08/03 06:59:02;;;;;;;21.42;6.20;;;;;;;;;;4903966;29;20055;-80
2022/08/03 07:01:27;;;;;;;19.75;5.95;;;;;;;;;;4923002;29;20095;-80
2022/08/03 07:03:53;;;;;;;22.98;6.03;;;;;;;;;;4921034;29;20047;-80
2022/08/03 07:06:19;;;;;;;20.70;6.07;;;;;;;;;;4905162;29;20035;-81
2022/08/03 07:08:44;;;;;;;19.45;5.30;;;;;;;;;;4936271;29;20122;-78
2022/08/03 07:11:09;;;;;;;19.42;5.60;;;;;;;;;;4943479;29;20070;-79
2022/08/03 07:13:35;;;;;;;22.67;5.82;;;;;;;;;;4919164;29;20468;-79
2022/08/03 07:16:00;;;;;;;17.15;5.18;;;;;;;;;;4950712;29;20172;-79
2022/08/03 07:18:25;;;;;;;21.70;5.07;;;;;;;;;;4934952;29;20481;-80
2022/08/03 07:20:51;;;;;;;21.70;5.80;;;;;;;;;;4904084;29;20111;-79
2022/08/03 07:23:16;;;;;;;18.20;5.18;;;;;;;;;;4917421;29;20127;-80
2022/08/03 07:25:42;;;;;;;19.52;5.40;;;;;;;;;;4918653;29;20114;-80
2022/08/03 07:28:07;;;;;;;16.58;4.75;;;;;;;;;;4918359;29;20039;-80
2022/08/03 07:30:32;;;;;;;31.30;4.55;;;;;;;;;;4935799;29;20077;-79
2022/08/03 07:32:58;;;;;;;23.33;5.15;;;;;;;;;;4919486;29;20118;-79
2022/08/03 07:35:23;;;;;;;18.70;5.70;;;;;;;;;;4936183;29;20036;-79
2022/08/03 07:37:49;;;;;;;15.85;4.85;;;;;;;;;;4919271;29;20074;-79
2022/08/03 07:40:16;;;;;;;20.38;4.88;;;;;;;;;;4912712;29;20501;-80
2022/08/03 07:42:41;;;;;;;21.95;4.63;;;;;;;;;;4885262;29;20024;-79
2022/08/03 07:45:08;;;;;;;23.67;4.85;;;;;;;;;;4924657;29;20043;-80
2022/08/03 07:47:35;;;;;;;17.27;4.35;;;;;;;;;;4904014;29;20038;-80
2022/08/03 07:50:01;;;;;;;15.50;4.47;;;;;;;;;;4911453;29;20051;-79
2022/08/03 07:55:11;;;;;;;22.20;4.90;;;;;;;;;;4936619;29;20035;-79
2022/08/03 07:57:36;;;;;;;25.75;5.00;;;;;;;;;;4897336;29;20556;-79
2022/08/03 08:00:07;;;;;;;21.65;4.50;;;;;;;;;;4919320;29;20118;-79
2022/08/03 08:02:33;;;;;;;19.65;4.35;;;;;;;;;;4910037;29;20024;-80
2022/08/03 08:04:58;;;;;;;21.85;4.43;;;;;;;;;;4888818;29;20038;-80
2022/08/03 08:07:25;;;;;;;21.13;4.68;;;;;;;;;;4905801;29;20123;-80
2022/08/03 08:09:50;;;;;;;19.50;4.32;;;;;;;;;;4869684;29;20503;-79
2022/08/03 08:12:16;;;;;;;18.25;4.57;;;;;;;;;;4932672;29;20012;-80
2022/08/03 08:14:44;;;;;;;21.08;5.07;;;;;;;;;;4920685;29;20102;-80
2022/08/03 08:17:09;;;;;;;20.40;4.35;;;;;;;;;;4899971;29;20035;-80
2022/08/03 08:19:35;;;;;;;22.27;4.25;;;;;;;;;;4924420;29;20027;-80
2022/08/03 08:22:00;;;;;;;21.73;4.63;;;;;;;;;;4919038;29;20103;-80
2022/08/03 08:24:25;;;;;;;21.85;5.15;;;;;;;;;;4907463;29;20143;-79
2022/08/03 08:26:51;;;;;;;18.13;4.03;;;;;;;;;;4932625;29;20036;-79
2022/08/03 08:29:17;;;;;;;16.23;3.92;;;;;;;;;;4913337;29;20027;-80
2022/08/03 08:31:42;;;;;;;21.08;4.22;;;;;;;;;;4887106;29;20027;-79
2022/08/03 08:34:07;;;;;;;16.50;3.35;;;;;;;;;;4915031;29;20119;-80
2022/08/03 08:36:33;;;;;;;17.58;4.38;;;;;;;;;;4916811;29;20051;-79
2022/08/03 08:38:58;;;;;;;15.68;3.85;;;;;;;;;;4933478;29;20048;-80
2022/08/03 08:41:24;;;;;;;28.98;4.93;;;;;;;;;;4913005;29;20111;-79
2022/08/03 08:43:50;;;;;;;16.13;3.78;;;;;;;;;;4933636;29;20075;-79
2022/08/03 08:46:15;;;;;;;22.55;4.63;;;;;;;;;;4903854;29;20551;-79
2022/08/03 08:48:41;;;;;;;19.40;4.00;;;;;;;;;;4903729;29;20038;-79
2022/08/03 08:51:07;;;;;;;16.25;3.85;;;;;;;;;;4899513;29;20047;-79
2022/08/03 08:53:34;;;;;;;14.70;3.45;;;;;;;;;;4890552;29;20028;-80
2022/08/03 08:55:59;;;;;;;15.90;4.15;;;;;;;;;;4917655;29;20032;-79
2022/08/03 08:58:25;;;;;;;20.65;4.32;;;;;;;;;;4901544;29;20030;-79
2022/08/03 09:00:50;;;;;;;20.60;4.20;;;;;;;;;;4919116;29;20557;-79
2022/08/03 09:03:16;;;;;;;19.40;4.28;;;;;;;;;;4899935;29;20051;-79
2022/08/03 09:05:42;;;;;;;15.68;3.50;;;;;;;;;;4927175;29;20058;-79
2022/08/03 09:08:07;;;;;;;16.92;4.30;;;;;;;;;;4907971;29;20032;-80
2022/08/03 09:10:33;;;;;;;26.98;4.20;;;;;;;;;;4923502;29;20815;-79
2022/08/03 09:12:59;;;;;;;13.35;3.70;;;;;;;;;;4896878;29;20114;-79
2022/08/03 09:15:25;;;;;;;16.02;4.35;;;;;;;;;;4914640;29;20272;-78
2022/08/03 09:17:55;;;;;;;21.10;4.35;;;;;;;;;;4917903;29;20032;-79
2022/08/03 09:20:21;;;;;;;18.80;3.78;;;;;;;;;;4929470;29;20032;-79
2022/08/03 09:22:56;;;;;;;16.30;4.00;;;;;;;;;;4888506;29;20039;-79
2022/08/03 09:25:26;;;;;;;16.05;3.53;;;;;;;;;;4899259;29;20040;-79
2022/08/03 09:27:52;;;;;;;20.55;5.03;;;;;;;;;;4898908;29;20501;-79
2022/08/03 09:30:18;;;;;;;20.55;4.32;;;;;;;;;;4895179;29;20030;-78
2022/08/03 09:32:44;;;;;;;20.73;4.22;;;;;;;;;;4887991;29;20027;-78
2022/08/03 09:35:10;;;;;;;20.85;4.43;;;;;;;;;;4903027;29;20115;-78
2022/08/03 09:37:36;;;;;;;25.10;4.43;;;;;;;;;;4904148;29;20059;-79
2022/08/03 09:40:02;;;;;;;21.67;4.75;;;;;;;;;;4906589;29;20131;-78
2022/08/03 09:42:27;;;;;;;19.35;3.97;;;;;;;;;;4921614;29;20098;-78
2022/08/03 09:44:53;;;;;;;26.13;5.25;;;;;;;;;;4890373;29;20075;-78
2022/08/03 09:47:32;;;;;;;26.95;4.82;;;;;;;;;;4887382;29;20036;-79
2022/08/03 09:50:01;;;;;;;22.05;5.32;;;;;;;;;;4916819;29;20035;-79
2022/08/03 09:52:30;;;;;;;26.33;4.45;;;;;;;;;;4934344;29;20107;-79
2022/08/03 09:54:56;;;;;;;25.50;4.80;;;;;;;;;;4917393;29;20040;-78
2022/08/03 09:57:22;;;;;;;25.25;4.60;;;;;;;;;;4932644;29;20525;-79
2022/08/03 09:59:47;;;;;;;19.02;4.22;;;;;;;;;;4906229;29;20402;-78
2022/08/03 10:02:23;;;;;;;22.70;4.97;;;;;;;;;;4882049;29;20344;-78
2022/08/03 10:04:51;;;;;;;17.42;4.32;;;;;;;;;;4907633;29;20087;-79
2022/08/03 10:07:17;;;;;;;28.77;5.53;;;;;;;;;;4918763;29;20378;-78
2022/08/03 10:10:00;;;;;;;21.30;4.78;;;;;;;;;;4936888;29;20039;-78
2022/08/03 10:12:25;;;;;;;;;;;;;;;;;;4905580;29;20512;-78
2022/08/03 10:14:51;;;;;;;19.88;3.92;;;;;;;;;;4919814;29;19942;-81
2022/08/03 10:17:17;;;;;;;22.13;4.38;;;;;;;;;;4890086;29;20023;-80
2022/08/03 10:19:42;;;;;;;25.17;4.60;;;;;;;;;;4922004;29;20032;-78
2022/08/03 10:22:17;;;;;;;21.08;4.32;;;;;;;;;;4893369;29;20056;-78
2022/08/03 10:24:54;;;;;;;15.95;3.45;;;;;;;;;;4894312;29;20118;-79
2022/08/03 10:27:21;;;;;;;20.58;4.85;;;;;;;;;;4907017;29;20036;-79
2022/08/03 10:29:50;;;;;;;22.17;4.05;;;;;;;;;;4915430;29;20092;-78
2022/08/03 10:32:46;;;;;;;20.23;4.63;;;;;;;;;;4910752;29;20378;-78
2022/08/03 10:35:16;;;;;;;21.38;4.88;;;;;;;;;;4912635;29;20024;-78
2022/08/03 10:37:46;;;;;;;18.27;4.28;;;;;;;;;;4907843;29;20035;-78
2022/08/03 10:40:18;;;;;;;22.23;3.97;;;;;;;;;;4939601;29;20054;-78
2022/08/03 10:42:44;;;;;;;17.67;4.28;;;;;;;;;;4923368;29;20063;-78
2022/08/03 10:45:39;;;;;;;27.77;4.68;;;;;;;;;;4924245;29;20539;-79
2022/08/03 10:48:05;;;;;;;18.83;4.45;;;;;;;;;;4915765;29;20052;-78
2022/08/03 10:50:30;;;;;;;22.25;4.05;;;;;;;;;;4908864;29;20123;-77
2022/08/03 10:53:05;;;;;;;20.90;4.57;;;;;;;;;;4923343;29;20040;-78
2022/08/03 10:58:36;;;;;;;22.05;5.00;;;;;;;;;;4940455;29;20089;-78
2022/08/03 11:01:02;;;;;;;26.52;4.68;;;;;;;;;;4934297;29;20045;-78
2022/08/03 11:03:27;;;;;;;19.10;5.05;;;;;;;;;;4934369;29;20027;-78
2022/08/03 11:05:54;;;;;;;26.23;5.03;;;;;;;;;;4921929;29;20051;-78
2022/08/03 11:08:24;;;;;;;21.58;4.55;;;;;;;;;;4940977;29;20495;-78
2022/08/03 11:10:51;;;;;;;22.38;5.22;;;;;;;;;;4938915;29;20070;-79
2022/08/03 11:13:22;;;;;;;18.85;4.60;;;;;;;;;;4920090;29;20035;-78
2022/08/03 11:15:50;;;;;;;22.80;5.22;;;;;;;;;;4890547;29;20028;-79
2022/08/03 11:18:15;;;;;;;16.13;4.38;;;;;;;;;;4922659;29;20110;-78
2022/08/03 11:20:56;;;;;;;24.85;4.57;;;;;;;;;;4921612;29;20031;-78
2022/08/03 11:23:47;;;;;;;22.35;6.13;;;;;;;;;;4938321;29;20506;-78
2022/08/03 11:26:16;;;;;;;19.40;4.93;;;;;;;;;;4947144;29;20451;-78
2022/08/03 11:28:45;;;;;;;22.13;5.30;;;;;;;;;;4939621;29;20027;-78
2022/08/03 11:31:26;;;;;;;26.73;5.60;;;;;;;;;;4937903;29;20028;-79
2022/08/03 11:34:12;;;;;;;20.95;6.07;;;;;;;;;;4923881;29;20102;-78
2022/08/03 11:37:15;;;;;;;23.60;4.82;;;;;;;;;;4938250;29;20035;-78
2022/08/03 11:39:45;;;;;;;23.90;4.13;;;;;;;;;;4953757;28;20058;-79
2022/08/03 11:42:23;;;;;;;19.60;5.72;;;;;;;;;;4908566;29;20032;-78
2022/08/03 11:44:58;;;;;;;29.13;5.32;;;;;;;;;;4921436;29;20039;-78
2022/08/03 11:47:27;;;;;;;25.67;5.53;;;;;;;;;;4895591;29;20023;-79
2022/08/03 11:49:59;;;;;;;31.40;5.75;;;;;;;;;;4918152;29;20039;-79
2022/08/03 11:52:24;;;;;;;21.70;5.55;;;;;;;;;;4918244;29;20485;-78
2022/08/03 11:54:50;;;;;;;20.05;5.20;;;;;;;;;;4902868;29;20040;-78
2022/08/03 11:57:29;;;;;;;21.90;4.53;;;;;;;;;;4932925;29;20027;-78
2022/08/03 11:59:54;;;;;;;26.80;5.45;;;;;;;;;;4904373;29;20027;-78
2022/08/03 12:02:19;;;;;;;17.75;3.92;;;;;;;;;;4905500;29;20066;-78
2022/08/03 12:04:52;;;;;;;15.80;3.88;;;;;;;;;;4952577;29;20135;-78
2022/08/03 12:07:17;;;;;;;19.98;4.75;;;;;;;;;;4904531;29;20481;-78
2022/08/03 12:10:08;;;;;;;20.15;4.30;;;;;;;;;;4924452;29;20030;-78
2022/08/03 12:12:34;;;;;;;24.50;4.65;;;;;;;;;;4923773;29;20162;-78
2022/08/03 12:14:59;;;;;;;25.33;5.07;;;;;;;;;;4927981;29;20488;-79
2022/08/03 12:17:38;;;;;;;17.90;3.33;;;;;;;;;;4938654;29;20024;-78
2022/08/03 12:20:06;;;;;;;15.80;3.97;;;;;;;;;;4921723;29;20510;-79
2022/08/03 12:22:36;;;;;;;13.68;3.00;;;;;;;;;;4956872;29;20119;-78
2022/08/03 12:25:07;;;;;;;20.33;4.60;;;;;;;;;;4939107;29;20305;-79
2022/08/03 12:27:32;;;;;;;25.08;4.00;;;;;;;;;;4920167;29;20122;-79
2022/08/03 12:29:59;;;;;;;17.67;4.72;;;;;;;;;;4904795;29;20118;-79
2022/08/03 12:32:26;;;;;;;20.77;4.53;;;;;;;;;;4918152;29;20539;-79
2022/08/03 12:34:51;;;;;;;14.50;3.67;;;;;;;;;;4917902;29;20116;-79
2022/08/03 12:37:20;;;;;;;17.80;3.80;;;;;;;;;;4921706;29;20051;-79
2022/08/03 12:39:53;;;;;;;18.10;4.13;;;;;;;;;;4888432;29;20060;-79
2022/08/03 12:42:19;;;;;;;14.55;3.47;;;;;;;;;;4926346;29;20056;-79
2022/08/03 12:44:48;;;;;;;21.17;4.10;;;;;;;;;;4914625;29;20508;-80
2022/08/03 12:47:14;;;;;;;16.88;3.72;;;;;;;;;;4883515;29;20110;-79
2022/08/03 12:50:06;;;;;;;15.55;3.63;;;;;;;;;;4908249;29;20135;-79
2022/08/03 12:52:41;;;;;;;11.60;2.78;;;;;;;;;;4859156;29;20476;-79
2022/08/03 12:55:08;;;;;;;15.10;3.08;;;;;;;;;;4891784;29;20040;-79
2022/08/03 12:57:40;;;;;;;17.38;3.92;;;;;;;;;;4901524;29;20028;-79
2022/08/03 13:00:16;;;;;;;11.63;3.58;;;;;;;;;;4918585;29;20028;-79
2022/08/03 13:02:42;;;;;;;23.10;4.53;;;;;;;;;;4903326;29;20035;-79
2022/08/03 13:05:14;;;;;;;19.38;4.60;;;;;;;;;;4887167;29;20101;-78
2022/08/03 13:07:43;;;;;;;18.40;3.75;;;;;;;;;;4909141;29;20115;-79
2022/08/03 13:10:09;;;;;;;15.80;3.55;;;;;;;;;;4931520;29;20036;-78
2022/08/03 13:12:45;;;;;;;18.48;2.85;;;;;;;;;;4917197;29;20043;-79
2022/08/03 13:15:10;;;;;;;16.50;3.28;;;;;;;;;;4903158;29;20036;-79
2022/08/03 13:17:36;;;;;;;12.45;3.67;;;;;;;;;;4901593;29;20096;-79
2022/08/03 13:20:01;;;;;;;12.77;3.65;;;;;;;;;;4900513;29;20028;-79
2022/08/03 13:22:31;;;;;;;19.13;3.33;;;;;;;;;;4901520;29;20035;-79
2022/08/03 13:24:57;;;;;;;11.40;3.25;;;;;;;;;;4912132;29;20106;-79
2022/08/03 13:27:24;;;;;;;17.77;4.00;;;;;;;;;;4901374;29;20123;-78
2022/08/03 13:29:52;;;;;;;19.58;3.50;;;;;;;;;;4912096;29;20135;-78
2022/08/03 13:32:17;;;;;;;13.30;3.90;;;;;;;;;;4891507;29;20040;-78
2022/08/03 13:34:45;;;;;;;15.95;4.05;;;;;;;;;;4931715;29;20039;-78
2022/08/03 13:37:11;;;;;;;15.88;3.25;;;;;;;;;;4910335;29;20099;-78
2022/08/03 13:39:36;;;;;;;15.05;3.72;;;;;;;;;;4867735;29;20043;-78
2022/08/03 13:42:02;;;;;;;13.93;2.72;;;;;;;;;;4915893;29;20048;-78
2022/08/03 13:44:27;;;;;;;15.85;3.88;;;;;;;;;;4883919;29;20500;-78
2022/08/03 13:46:53;;;;;;;11.77;3.40;;;;;;;;;;4900740;29;20078;-78
2022/08/03 13:49:18;;;;;;;13.70;3.03;;;;;;;;;;4884665;29;20543;-78
2022/08/03 13:51:44;;;;;;;14.82;3.72;;;;;;;;;;4915775;29;20115;-78
2022/08/03 13:54:09;;;;;;;10.43;2.83;;;;;;;;;;4884631;29;20032;-78
2022/08/03 13:56:34;;;;;;;16.15;3.80;;;;;;;;;;4899681;29;20116;-78
2022/08/03 13:59:00;;;;;;;15.93;3.28;;;;;;;;;;4883458;29;20032;-78
2022/08/03 14:01:25;;;;;;;19.33;3.35;;;;;;;;;;4898065;29;20056;-78
2022/08/03 14:03:55;;;;;;;13.95;3.30;;;;;;;;;;4896622;29;20397;-78
2022/08/03 14:06:21;;;;;;;12.05;3.08;;;;;;;;;;4898423;29;20040;-78
2022/08/03 14:08:49;;;;;;;17.52;3.47;;;;;;;;;;4915686;29;20047;-78
2022/08/03 14:11:14;;;;;;;12.48;3.05;;;;;;;;;;4899704;29;20036;-79
2022/08/03 14:13:40;;;;;;;15.00;3.10;;;;;;;;;;4890740;29;20039;-79
2022/08/03 14:16:05;;;;;;;11.48;2.83;;;;;;;;;;4899735;29;20574;-79
2022/08/03 14:18:30;;;;;;;11.55;2.72;;;;;;;;;;4900585;29;20373;-78
2022/08/03 14:20:56;;;;;;;19.20;3.20;;;;;;;;;;4883184;29;20095;-78
2022/08/03 14:23:22;;;;;;;20.48;3.22;;;;;;;;;;4915436;29;20106;-78
2022/08/03 14:25:47;;;;;;;12.55;2.65;;;;;;;;;;4917245;29;20064;-78
2022/08/03 14:28:13;;;;;;;17.55;4.13;;;;;;;;;;4935271;29;20032;-78
2022/08/03 14:30:38;;;;;;;15.75;3.42;;;;;;;;;;4909659;29;20047;-78
2022/08/03 14:33:03;;;;;;;14.98;3.50;;;;;;;;;;4899829;29;20512;-78
2022/08/03 14:35:29;;;;;;;13.00;2.67;;;;;;;;;;4931724;29;20465;-79
2022/08/03 14:37:54;;;;;;;11.77;3.08;;;;;;;;;;4886162;29;20067;-78
2022/08/03 14:40:20;;;;;;;17.42;3.28;;;;;;;;;;4900538;29;20404;-79
2022/08/03 14:42:45;;;;;;;16.85;3.08;;;;;;;;;;4887185;29;20040;-79
2022/08/03 14:45:11;;;;;;;15.77;3.53;;;;;;;;;;4918725;29;20103;-79